Time;durP1;ratioP1;P1;durP2;ratioP2;P2;SDS_P1;SDS_P2;PMS_P1;PMS_P2;Temp;Humidity;BMP_temperature;BMP_pressure;BME280_temperature;BME280_humidity;BME280_pressure;Samples;Min_cycle;Max_cycle;Signal;HPM_P1;HPM_P2
2023/04/27 00:00:06;;;;;;;4.73;2.90;;;;;;;4.49;99.87;102093.50;5130745;28;20047;-36
2023/04/27 00:02:32;;;;;;;4.32;2.70;;;;;;;4.44;100.00;102095.81;5131482;27;20059;-37
2023/04/27 00:04:57;;;;;;;5.23;2.50;;;;;;;4.45;99.82;102104.69;5131019;27;20535;-36
2023/04/27 00:07:23;;;;;;;5.80;2.73;;;;;;;4.42;99.98;102108.50;5130814;28;20655;-36
2023/04/27 00:09:48;;;;;;;3.80;2.30;;;;;;;4.33;100.00;102096.91;5131128;27;20039;-36
2023/04/27 00:12:13;;;;;;;4.40;2.43;;;;;;;4.38;100.00;102094.59;5122674;27;20032;-36
2023/04/27 00:14:39;;;;;;;4.50;2.80;;;;;;;4.39;100.00;102098.97;5116782;28;20288;-36
2023/04/27 00:17:04;;;;;;;5.90;3.10;;;;;;;4.32;100.00;102099.75;5117089;28;20031;-36
2023/04/27 00:19:30;;;;;;;5.03;2.73;;;;;;;4.32;100.00;102095.25;5116876;28;20027;-36
2023/04/27 00:21:56;;;;;;;4.32;2.47;;;;;;;4.21;100.00;102095.53;5117005;28;20022;-36
2023/04/27 00:24:22;;;;;;;4.35;2.78;;;;;;;4.24;100.00;102097.88;5117143;28;20016;-36
2023/04/27 00:26:47;;;;;;;4.10;2.50;;;;;;;4.20;100.00;102096.53;5117332;28;20019;-36
2023/04/27 00:29:13;;;;;;;5.77;3.20;;;;;;;4.20;100.00;102096.53;5116515;28;20375;-36
2023/04/27 00:31:38;;;;;;;4.50;2.63;;;;;;;4.17;100.00;102091.47;5117564;28;20019;-36
2023/04/27 00:34:03;;;;;;;5.20;3.00;;;;;;;4.10;100.00;102096.63;5116920;28;20023;-36
2023/04/27 00:36:29;;;;;;;5.53;2.80;;;;;;;4.11;100.00;102101.00;5116634;28;20409;-36
2023/04/27 00:38:54;;;;;;;4.77;2.80;;;;;;;4.08;100.00;102111.16;5116272;28;20026;-36
2023/04/27 00:41:21;;;;;;;4.60;2.80;;;;;;;4.00;100.00;102101.25;5116233;28;20035;-36
2023/04/27 00:43:47;;;;;;;4.63;2.92;;;;;;;3.93;100.00;102102.88;5116173;28;20020;-36
2023/04/27 00:46:13;;;;;;;4.93;2.57;;;;;;;3.97;100.00;102095.38;5116227;28;20030;-36
2023/04/27 00:48:40;;;;;;;3.78;2.50;;;;;;;3.91;100.00;102099.53;5117202;28;20346;-36
2023/04/27 00:51:05;;;;;;;4.20;2.67;;;;;;;3.86;100.00;102105.34;5117195;28;20089;-36
2023/04/27 00:53:31;;;;;;;4.20;2.67;;;;;;;3.88;100.00;102092.63;5116323;28;20044;-36
2023/04/27 00:55:57;;;;;;;4.18;2.65;;;;;;;3.88;100.00;102092.63;5116593;28;20405;-36
2023/04/27 00:58:23;;;;;;;4.68;3.25;;;;;;;3.83;100.00;102094.94;5115897;28;20363;-36
2023/04/27 01:00:48;;;;;;;3.25;2.60;;;;;;;3.89;100.00;102096.16;5116549;28;20054;-36
2023/04/27 01:03:14;;;;;;;3.78;3.10;;;;;;;3.85;100.00;102100.13;5116635;28;20059;-36
2023/04/27 01:05:40;;;;;;;3.42;2.53;;;;;;;3.78;100.00;102099.91;5115793;28;20038;-36
2023/04/27 01:08:06;;;;;;;6.15;3.22;;;;;;;3.73;100.00;102093.34;5116279;28;20106;-36
2023/04/27 01:10:31;;;;;;;4.63;2.80;;;;;;;3.72;100.00;102087.16;5116271;28;20563;-36
2023/04/27 01:12:56;;;;;;;4.77;2.73;;;;;;;3.73;100.00;102085.34;5116538;28;20264;-36
2023/04/27 01:15:22;;;;;;;4.57;2.60;;;;;;;3.68;100.00;102083.13;5115937;27;20029;-36
2023/04/27 01:17:47;;;;;;;5.17;2.70;;;;;;;3.69;100.00;102087.47;5116094;28;20367;-36
2023/04/27 01:20:13;;;;;;;3.60;2.63;;;;;;;3.55;100.00;102080.00;5116357;28;20051;-36
2023/04/27 01:22:39;;;;;;;;;;;;;;;3.78;100.00;102099.91;5115873;28;20023;-36
2023/04/27 01:25:05;;;;;;;4.20;2.65;;;;;;;3.60;100.00;102099.09;5115274;28;19904;-36
2023/04/27 01:27:30;;;;;;;4.10;2.20;;;;;;;3.53;100.00;102108.75;5115534;28;20024;-36
2023/04/27 01:29:56;;;;;;;4.35;2.78;;;;;;;3.44;100.00;102093.63;5116227;28;20023;-36
2023/04/27 01:32:21;;;;;;;3.30;2.73;;;;;;;3.42;100.00;102107.16;5115561;28;20396;-36
2023/04/27 01:34:46;;;;;;;3.77;2.73;;;;;;;3.41;100.00;102097.41;5115881;28;20452;-36
2023/04/27 01:37:12;;;;;;;5.17;3.20;;;;;;;3.38;100.00;102100.44;5115787;28;20490;-36
2023/04/27 01:39:37;;;;;;;3.63;2.80;;;;;;;3.41;100.00;102096.59;5115376;28;20108;-36
2023/04/27 01:42:03;;;;;;;4.73;2.83;;;;;;;3.41;100.00;102093.91;5115034;28;20109;-36
2023/04/27 01:44:28;;;;;;;3.30;3.00;;;;;;;3.33;100.00;102087.50;5115025;28;20354;-36
2023/04/27 01:46:54;;;;;;;4.55;3.22;;;;;;;3.38;100.00;102100.44;5114942;28;20468;-36
2023/04/27 01:49:19;;;;;;;4.43;2.60;;;;;;;3.35;100.00;102090.84;5115147;28;20034;-36
2023/04/27 01:51:44;;;;;;;7.13;3.17;;;;;;;3.32;100.00;102091.19;5115498;28;20030;-36
2023/04/27 01:54:10;;;;;;;6.60;3.20;;;;;;;3.30;100.00;102081.63;5115106;28;20023;-36
2023/04/27 01:56:35;;;;;;;4.33;3.53;;;;;;;3.20;100.00;102071.00;5113617;28;20260;-36
2023/04/27 01:59:01;;;;;;;4.90;3.30;;;;;;;3.20;100.00;102073.69;5114727;28;20102;-36
2023/04/27 02:01:26;;;;;;;3.63;2.97;;;;;;;3.18;100.00;102081.03;5115317;28;20043;-36
2023/04/27 02:03:52;;;;;;;3.53;2.78;;;;;;;3.27;100.00;102093.47;5115159;28;20023;-36
2023/04/27 02:06:17;;;;;;;4.70;3.23;;;;;;;3.29;100.00;102085.28;5115759;28;20031;-36
2023/04/27 02:08:43;;;;;;;5.00;3.33;;;;;;;3.25;100.00;102084.75;5114466;28;20019;-35
2023/04/27 02:11:08;;;;;;;4.83;3.53;;;;;;;3.19;100.00;102084.53;5115063;28;20020;-36
2023/04/27 02:13:33;;;;;;;5.87;3.40;;;;;;;3.14;100.00;102073.47;5114537;28;20376;-36
2023/04/27 02:16:00;;;;;;;5.33;3.67;;;;;;;3.20;100.00;102078.19;5115318;28;20099;-36
2023/04/27 02:18:26;;;;;;;5.68;3.40;;;;;;;3.16;100.00;102077.66;5114946;28;20110;-36
2023/04/27 02:20:52;;;;;;;4.85;3.53;;;;;;;3.16;100.00;102064.28;5115444;28;20102;-35
2023/04/27 02:23:17;;;;;;;5.77;3.67;;;;;;;3.18;100.00;102070.34;5114387;28;20020;-36
2023/04/27 02:25:45;;;;;;;7.80;3.63;;;;;;;3.19;100.00;102068.50;5115464;28;20070;-36
2023/04/27 02:28:11;;;;;;;5.13;3.30;;;;;;;3.20;100.00;102072.84;5114483;28;20015;-36
2023/04/27 02:30:36;;;;;;;6.90;3.53;;;;;;;3.25;100.00;102070.53;5114484;28;20074;-36
2023/04/27 02:33:01;;;;;;;5.40;3.73;;;;;;;3.32;100.00;102060.94;5114502;28;20068;-36
2023/04/27 02:35:27;;;;;;;8.70;4.20;;;;;;;3.24;100.00;102044.81;5115085;28;20020;-36
2023/04/27 02:37:52;;;;;;;4.57;3.60;;;;;;;3.23;100.00;102054.66;5114373;28;20043;-36
2023/04/27 02:40:17;;;;;;;10.70;3.80;;;;;;;3.23;100.00;102053.84;5114676;28;20059;-36
2023/04/27 02:42:43;;;;;;;4.97;3.47;;;;;;;3.18;100.00;102053.44;5114322;28;20016;-36
2023/04/27 02:45:08;;;;;;;4.93;3.10;;;;;;;3.25;100.00;102055.34;5114651;28;20012;-36
2023/04/27 02:47:34;;;;;;;4.70;3.47;;;;;;;3.27;100.00;102055.19;5114558;28;20076;-36
2023/04/27 02:50:00;;;;;;;4.43;3.30;;;;;;;3.24;100.00;102053.66;5114616;28;20068;-36
2023/04/27 02:52:26;;;;;;;4.30;3.08;;;;;;;3.27;100.00;102058.72;5114221;28;20149;-36
2023/04/27 02:54:51;;;;;;;6.03;3.80;;;;;;;3.23;100.00;102068.03;5113878;28;20026;-36
2023/04/27 02:57:17;;;;;;;5.83;4.00;;;;;;;3.23;100.00;102068.03;5114207;28;20028;-36
2023/04/27 02:59:42;;;;;;;5.20;3.60;;;;;;;3.20;100.00;102068.34;5114109;28;20069;-36
2023/04/27 03:02:07;;;;;;;5.50;3.67;;;;;;;3.19;100.00;102063.16;5115029;28;20047;-36
2023/04/27 03:04:35;;;;;;;4.13;3.60;;;;;;;3.00;100.00;102042.75;5114117;28;20051;-36
2023/04/27 03:07:01;;;;;;;5.85;3.78;;;;;;;2.97;100.00;102043.88;5114319;28;20020;-36
2023/04/27 03:09:27;;;;;;;5.00;3.45;;;;;;;2.99;100.00;102057.94;5113692;28;20012;-36
2023/04/27 03:11:52;;;;;;;6.53;3.80;;;;;;;2.96;100.00;102055.56;5114057;28;20024;-35
2023/04/27 03:14:17;;;;;;;6.57;3.63;;;;;;;2.89;100.00;102048.31;5114312;28;20047;-36
2023/04/27 03:16:43;;;;;;;8.13;3.60;;;;;;;2.91;100.00;102049.00;5114070;28;20034;-36
2023/04/27 03:19:08;;;;;;;4.90;3.60;;;;;;;2.89;100.00;102051.00;5112758;28;20028;-36
2023/04/27 03:21:33;;;;;;;6.47;4.20;;;;;;;2.90;100.00;102063.34;5113662;28;20023;-36
2023/04/27 03:23:58;;;;;;;6.77;3.90;;;;;;;2.84;100.00;102046.94;5113703;28;20046;-36
2023/04/27 03:26:24;;;;;;;6.50;4.10;;;;;;;2.91;100.00;102070.38;5114177;28;20104;-36
2023/04/27 03:28:50;;;;;;;;;;;;;;;3.01;100.00;102066.63;5114222;28;20028;-36
2023/04/27 03:31:15;;;;;;;6.33;3.70;;;;;;;2.93;100.00;102071.06;5113840;28;19911;-36
2023/04/27 03:33:41;;;;;;;3.92;3.50;;;;;;;3.03;100.00;102070.03;5113821;28;20023;-36
2023/04/27 03:36:08;;;;;;;6.37;3.53;;;;;;;3.02;100.00;102067.47;5113497;28;20020;-36
2023/04/27 03:38:34;;;;;;;6.18;3.60;;;;;;;3.01;100.00;102068.47;5113787;28;20360;-36
2023/04/27 03:40:59;;;;;;;;;;;;;;;3.17;100.00;102082.00;5114093;28;20023;-36
2023/04/27 03:43:25;;;;;;;5.38;4.03;;;;;;;3.04;100.00;102082.38;5113691;28;19914;-36
2023/04/27 03:45:51;;;;;;;6.30;3.67;;;;;;;2.94;100.00;102067.41;5114032;28;20517;-35
2023/04/27 03:48:17;;;;;;;5.35;3.75;;;;;;;2.98;100.00;102083.00;5117247;28;20020;-35
2023/04/27 03:50:42;;;;;;;5.00;3.45;;;;;;;2.95;100.00;102069.91;5117251;28;20102;-36
2023/04/27 03:53:08;;;;;;;7.00;3.47;;;;;;;2.97;100.00;102085.78;5118295;28;20032;-36
2023/04/27 03:55:37;;;;;;;5.30;3.80;;;;;;;2.90;100.00;102082.91;5117453;28;20084;-36
2023/04/27 03:58:03;;;;;;;4.78;3.50;;;;;;;2.91;100.00;102084.56;5117353;28;20030;-35
2023/04/27 04:00:28;;;;;;;4.57;3.53;;;;;;;2.79;100.00;102075.09;5117081;28;20035;-36
2023/04/27 04:02:54;;;;;;;8.60;4.40;;;;;;;2.86;100.00;102084.19;5117378;28;20034;-36
2023/04/27 04:05:19;;;;;;;4.50;3.70;;;;;;;2.83;100.00;102082.66;5117836;28;20030;-35
2023/04/27 04:07:44;;;;;;;9.97;4.07;;;;;;;2.86;100.00;102083.34;5117285;28;20046;-36
2023/04/27 04:10:10;;;;;;;5.33;3.67;;;;;;;2.93;100.00;102090.63;5117256;28;20031;-36
2023/04/27 04:12:36;;;;;;;5.97;4.55;;;;;;;2.88;100.00;102087.56;5117137;28;20035;-36
2023/04/27 04:15:02;;;;;;;4.93;3.70;;;;;;;2.90;100.00;102084.72;5117094;28;20060;-36
2023/04/27 04:17:28;;;;;;;6.82;4.07;;;;;;;2.87;100.00;102085.03;5116949;28;20045;-35
2023/04/27 04:19:53;;;;;;;5.30;3.80;;;;;;;2.89;100.00;102091.06;5116949;28;20068;-35
2023/04/27 04:22:18;;;;;;;5.27;4.10;;;;;;;2.82;100.00;102086.31;5116934;28;20076;-35
2023/04/27 04:24:44;;;;;;;6.03;3.77;;;;;;;2.88;100.00;102097.38;5116930;28;20022;-35
2023/04/27 04:27:09;;;;;;;7.10;4.40;;;;;;;2.83;100.00;102085.34;5117257;28;20020;-36
2023/04/27 04:29:34;;;;;;;7.03;4.07;;;;;;;2.89;100.00;102088.41;5117629;28;20031;-36
2023/04/27 04:32:00;;;;;;;7.70;3.87;;;;;;;2.95;100.00;102095.81;5117344;28;20152;-36
2023/04/27 04:34:26;;;;;;;6.80;4.30;;;;;;;2.93;100.00;102095.97;5117244;28;20023;-36
2023/04/27 04:36:51;;;;;;;7.03;4.30;;;;;;;2.98;100.00;102101.69;5116674;28;20501;-35
2023/04/27 04:39:20;;;;;;;5.85;4.00;;;;;;;2.99;100.00;102100.69;5116311;28;20104;-35
2023/04/27 04:41:46;;;;;;;7.05;4.50;;;;;;;2.94;100.00;102094.97;5116795;28;20378;-36
2023/04/27 04:44:11;;;;;;;5.43;4.30;;;;;;;3.07;100.00;102105.28;5117277;28;20019;-36
2023/04/27 04:46:37;;;;;;;6.93;4.28;;;;;;;3.07;100.00;102113.28;5117363;28;20023;-36
2023/04/27 04:49:03;;;;;;;7.20;4.15;;;;;;;3.11;100.00;102120.03;5116091;28;20020;-36
2023/04/27 04:51:28;;;;;;;3.97;3.58;;;;;;;3.15;100.00;102116.06;5116447;28;20099;-35
2023/04/27 04:53:53;;;;;;;7.13;4.53;;;;;;;3.22;100.00;102122.50;5116279;28;20023;-35
2023/04/27 04:56:18;;;;;;;5.07;4.07;;;;;;;3.23;100.00;102113.47;5117180;28;20020;-36
2023/04/27 04:58:44;;;;;;;7.43;4.57;;;;;;;3.23;100.00;102113.47;5115861;28;20379;-35
2023/04/27 05:01:10;;;;;;;5.55;4.55;;;;;;;3.29;100.00;102114.69;5115715;28;20480;-35
2023/04/27 05:03:35;;;;;;;9.38;4.50;;;;;;;3.27;100.00;102104.16;5116135;28;20106;-35
2023/04/27 05:06:01;;;;;;;6.30;4.43;;;;;;;3.33;100.00;102116.91;5116690;28;20066;-36
2023/04/27 05:08:26;;;;;;;8.23;4.40;;;;;;;3.32;100.00;102117.91;5116049;28;20043;-36
2023/04/27 05:10:52;;;;;;;6.37;4.73;;;;;;;3.28;100.00;102115.69;5116249;28;20036;-36
2023/04/27 05:13:19;;;;;;;6.47;4.80;;;;;;;3.38;100.00;102131.66;5116732;28;20156;-35
2023/04/27 05:15:44;;;;;;;6.35;5.28;;;;;;;3.44;100.00;102125.72;5115921;28;20023;-36
2023/04/27 05:18:09;;;;;;;8.80;4.93;;;;;;;3.52;100.00;102125.78;5115580;28;20015;-35
2023/04/27 05:20:36;;;;;;;6.43;4.80;;;;;;;3.53;100.00;102119.44;5116026;28;20047;-36
2023/04/27 05:23:01;;;;;;;;;;;;;;;3.65;100.00;102123.53;5116136;28;20106;-36
2023/04/27 05:25:40;;;;;;;6.95;4.57;;;;;;;3.69;100.00;102124.94;5116247;28;19998;-36
2023/04/27 05:28:08;;;;;;;5.53;3.92;;;;;;;3.86;100.00;102120.56;5115954;28;20026;-36
2023/04/27 05:30:34;;;;;;;7.53;4.63;;;;;;;3.81;100.00;102102.28;5115549;28;20464;-36
2023/04/27 05:33:00;;;;;;;6.85;5.10;;;;;;;3.92;100.00;102119.94;5115296;28;20405;-36
2023/04/27 05:35:25;;;;;;;6.33;4.47;;;;;;;4.07;100.00;102123.72;5115536;28;20028;-36
2023/04/27 05:37:51;;;;;;;11.03;4.67;;;;;;;4.03;100.00;102117.00;5115229;28;20046;-36
2023/04/27 05:40:16;;;;;;;6.03;4.47;;;;;;;4.13;100.00;102127.59;5115364;28;20019;-36
2023/04/27 05:42:42;;;;;;;5.47;4.57;;;;;;;4.08;100.00;102111.16;5115346;28;20023;-36
2023/04/27 05:45:07;;;;;;;8.17;4.73;;;;;;;4.21;100.00;102129.50;5115656;28;20043;-36
2023/04/27 05:47:33;;;;;;;4.30;3.83;;;;;;;4.21;100.00;102116.94;5115266;28;20015;-36
2023/04/27 05:49:58;;;;;;;7.57;4.93;;;;;;;4.25;100.00;102128.19;5115335;28;20035;-36
2023/04/27 05:52:29;;;;;;;6.30;4.90;;;;;;;4.30;100.00;102134.75;5115236;28;20020;-36
2023/04/27 05:54:55;;;;;;;7.85;4.95;;;;;;;4.43;100.00;102133.47;5115144;28;20020;-36
2023/04/27 05:57:21;;;;;;;6.25;4.40;;;;;;;4.44;100.00;102130.66;5115374;28;20497;-36
2023/04/27 05:59:46;;;;;;;5.37;4.40;;;;;;;4.49;100.00;102130.13;5114703;28;20028;-36
2023/04/27 06:02:11;;;;;;;7.70;4.90;;;;;;;4.56;100.00;102132.03;5116190;28;20043;-36
2023/04/27 06:04:37;;;;;;;6.87;4.73;;;;;;;4.73;100.00;102138.28;5114947;28;20054;-36
2023/04/27 06:07:10;;;;;;;9.07;4.75;;;;;;;4.83;100.00;102140.84;5114929;28;20012;-36
2023/04/27 06:09:35;;;;;;;4.97;4.40;;;;;;;4.92;100.00;102129.16;5114593;28;20042;-36
2023/04/27 06:12:03;;;;;;;6.68;4.60;;;;;;;5.03;100.00;102133.41;5115137;28;20028;-36
2023/04/27 06:14:29;;;;;;;7.40;4.38;;;;;;;5.04;98.65;102132.38;5115272;28;20109;-36
2023/04/27 06:16:54;;;;;;;6.07;4.13;;;;;;;5.15;98.34;102134.75;5115044;28;20028;-36
2023/04/27 06:19:19;;;;;;;6.23;4.00;;;;;;;5.21;97.97;102131.41;5114449;28;20088;-36
2023/04/27 06:21:45;;;;;;;5.53;4.03;;;;;;;5.11;96.10;102118.16;5115225;28;20233;-36
2023/04/27 06:24:10;;;;;;;8.00;3.60;;;;;;;5.22;96.86;102124.19;5114659;28;20473;-36
2023/04/27 06:26:35;;;;;;;6.77;3.90;;;;;;;5.31;95.06;102129.41;5115115;28;20024;-36
2023/04/27 06:29:03;;;;;;;5.10;3.77;;;;;;;5.44;95.92;102131.63;5114625;28;20030;-36
2023/04/27 06:31:28;;;;;;;4.80;3.55;;;;;;;5.53;95.24;102129.81;5114522;28;20039;-36
2023/04/27 06:33:54;;;;;;;6.57;3.60;;;;;;;5.69;95.65;102132.47;5114496;28;20028;-36
2023/04/27 06:36:19;;;;;;;7.23;4.30;;;;;;;5.79;94.99;102121.59;5114436;28;20031;-36
2023/04/27 06:38:45;;;;;;;9.50;3.65;;;;;;;5.93;92.59;102124.47;5114383;28;20024;-36
2023/04/27 06:41:10;;;;;;;5.43;3.27;;;;;;;6.05;92.89;102134.84;5114258;28;20023;-36
2023/04/27 06:43:35;;;;;;;4.10;3.07;;;;;;;6.07;90.41;102131.00;5114389;28;20028;-36
2023/04/27 06:46:01;;;;;;;4.57;2.87;;;;;;;6.15;90.32;102131.00;5114672;27;20069;-36
2023/04/27 06:48:27;;;;;;;5.15;3.50;;;;;;;6.25;90.41;102138.03;5113930;28;20028;-36
2023/04/27 06:50:52;;;;;;;6.87;3.20;;;;;;;6.30;88.88;102130.28;5114548;28;20110;-36
2023/04/27 06:53:17;;;;;;;5.00;2.80;;;;;;;6.39;90.59;102119.34;5114226;28;20513;-36
2023/04/27 06:55:43;;;;;;;4.10;3.10;;;;;;;6.42;88.29;102127.06;5114519;28;20020;-36
2023/04/27 06:58:08;;;;;;;5.30;3.10;;;;;;;6.52;88.62;102123.34;5114164;28;20452;-36
2023/04/27 07:00:33;;;;;;;5.63;2.77;;;;;;;6.67;88.01;102121.59;5114024;28;20051;-36
2023/04/27 07:02:59;;;;;;;4.20;2.90;;;;;;;6.63;85.76;102122.94;5114083;28;20093;-36
2023/04/27 07:05:24;;;;;;;4.40;2.93;;;;;;;6.78;87.71;102120.38;5114608;28;20467;-36
2023/04/27 07:07:50;;;;;;;6.22;2.60;;;;;;;6.91;87.27;102124.19;5114322;28;20024;-36
2023/04/27 07:10:15;;;;;;;5.03;2.80;;;;;;;6.99;86.50;102125.16;5114364;28;20463;-36
2023/04/27 07:12:41;;;;;;;4.30;2.93;;;;;;;6.95;86.49;102116.59;5114218;28;20027;-36
2023/04/27 07:15:07;;;;;;;;;;;;;;;7.09;86.24;102125.78;5114442;28;20164;-36
2023/04/27 07:17:33;;;;;;;4.75;3.28;;;;;;;7.01;82.69;102123.97;5114273;28;19955;-36
2023/04/27 07:20:00;;;;;;;6.07;2.90;;;;;;;7.14;85.29;102134.16;5114182;28;20543;-36
2023/04/27 07:22:25;;;;;;;8.50;3.90;;;;;;;7.19;84.81;102126.38;5115914;28;20019;-36
2023/04/27 07:24:51;;;;;;;6.50;4.03;;;;;;;7.20;83.58;102122.69;5118813;28;20050;-36
2023/04/27 07:27:16;;;;;;;5.63;3.38;;;;;;;7.35;85.22;102123.59;5118000;28;20015;-36
2023/04/27 07:29:42;;;;;;;7.32;3.25;;;;;;;7.39;83.62;102119.53;5118275;28;20019;-36
2023/04/27 07:32:07;;;;;;;6.45;3.35;;;;;;;7.50;83.60;102118.25;5118176;28;20019;-36
2023/04/27 07:34:33;;;;;;;4.93;3.08;;;;;;;7.53;84.23;102120.59;5118493;27;20476;-36
2023/04/27 07:37:00;;;;;;;5.35;3.05;;;;;;;7.59;84.17;102124.44;5117819;28;20031;-37
2023/04/27 07:39:25;;;;;;;;;;;;;;;7.75;84.27;102116.22;5118180;28;20027;-35
2023/04/27 07:41:51;;;;;;;5.32;3.00;;;;;;;7.82;83.53;102122.56;5117666;28;20344;-35
2023/04/27 07:44:17;;;;;;;6.03;3.45;;;;;;;7.85;83.87;102108.72;5117601;28;20024;-35
2023/04/27 07:46:42;;;;;;;;;;;;;;;8.08;84.85;102122.16;5118388;28;20058;-36
2023/04/27 07:49:08;;;;;;;5.13;3.37;;;;;;;8.12;83.01;102122.63;5117561;28;20343;-36
2023/04/27 07:51:34;;;;;;;6.53;3.20;;;;;;;8.18;81.99;102122.72;5117647;27;20601;-36
2023/04/27 07:54:01;;;;;;;11.38;3.60;;;;;;;8.24;82.28;102127.34;5117176;28;20024;-36
2023/04/27 07:56:26;;;;;;;7.03;3.40;;;;;;;8.28;80.64;102125.13;5117453;28;20043;-36
2023/04/27 07:58:51;;;;;;;7.90;3.88;;;;;;;8.37;80.40;102126.75;5117420;28;20027;-36
2023/04/27 08:01:17;;;;;;;9.67;4.60;;;;;;;8.32;78.87;102120.22;5117593;28;20084;-36
2023/04/27 08:03:42;;;;;;;7.47;4.03;;;;;;;8.41;79.25;102117.28;5117876;28;20027;-36
2023/04/27 08:06:07;;;;;;;6.07;3.50;;;;;;;8.51;80.93;102117.84;5117241;28;20026;-36
2023/04/27 08:08:33;;;;;;;20.57;4.40;;;;;;;8.64;80.62;102119.06;5117217;28;20024;-36
2023/04/27 08:10:58;;;;;;;13.47;3.80;;;;;;;8.71;79.22;102112.72;5117491;28;20051;-36
2023/04/27 08:13:24;;;;;;;55.37;6.43;;;;;;;8.77;81.34;102100.34;5117469;28;20016;-36
2023/04/27 08:15:50;;;;;;;15.70;4.00;;;;;;;8.94;77.20;102120.69;5117686;27;20020;-36
2023/04/27 08:18:16;;;;;;;;;;;;;;;9.03;79.90;102114.16;5117379;28;20128;-36
2023/04/27 08:20:42;;;;;;;4.13;3.00;;;;;;;9.02;76.39;102117.84;5116945;28;19965;-36
2023/04/27 08:23:07;;;;;;;7.47;3.80;;;;;;;8.95;74.35;102125.06;5116976;28;20020;-36
2023/04/27 08:25:35;;;;;;;4.27;3.20;;;;;;;8.86;76.26;102126.19;5116929;28;20030;-36
2023/04/27 08:28:00;;;;;;;6.07;3.28;;;;;;;8.90;75.97;102127.47;5116495;27;20368;-36
2023/04/27 08:30:25;;;;;;;6.03;3.25;;;;;;;9.03;76.65;102114.16;5116879;28;20102;-36
2023/04/27 08:32:51;;;;;;;6.53;3.17;;;;;;;9.00;72.00;102113.69;5116230;28;20019;-36
2023/04/27 08:35:17;;;;;;;5.33;3.03;;;;;;;9.09;72.78;102112.56;5117068;28;20064;-36
2023/04/27 08:37:43;;;;;;;6.35;3.13;;;;;;;9.11;74.69;102094.31;5116622;28;20269;-36
2023/04/27 08:40:09;;;;;;;6.97;3.03;;;;;;;9.32;72.61;102100.75;5116875;28;20055;-36
2023/04/27 08:42:35;;;;;;;4.32;3.28;;;;;;;9.38;72.71;102089.19;5116488;28;20020;-37
2023/04/27 08:45:00;;;;;;;4.93;3.33;;;;;;;9.35;72.90;102076.91;5117350;28;20060;-36
2023/04/27 08:47:26;;;;;;;4.22;2.72;;;;;;;9.42;70.41;102087.75;5116155;28;20076;-36
2023/04/27 08:49:51;;;;;;;5.18;3.45;;;;;;;9.51;70.97;102095.53;5116447;28;20112;-36
2023/04/27 08:52:16;;;;;;;5.13;3.17;;;;;;;9.65;70.19;102095.66;5116194;28;20058;-36
2023/04/27 08:54:42;;;;;;;4.33;2.70;;;;;;;9.65;68.08;102093.78;5116988;28;20016;-36
2023/04/27 08:57:12;;;;;;;5.05;3.10;;;;;;;9.79;68.72;102097.44;5116916;28;20110;-36
2023/04/27 08:59:40;;;;;;;7.10;3.33;;;;;;;9.84;70.31;102073.38;5116287;28;20059;-36
2023/04/27 09:02:17;;;;;;;4.00;2.33;;;;;;;9.97;64.90;102095.13;5116694;28;20122;-36
2023/04/27 09:04:43;;;;;;;7.50;2.90;;;;;;;9.96;67.83;102089.91;5116203;28;20019;-36
2023/04/27 09:07:17;;;;;;;22.90;4.30;;;;;;;10.03;66.07;102097.03;5116172;28;20107;-36
2023/04/27 09:09:43;;;;;;;5.97;2.88;;;;;;;9.95;63.24;102082.81;5116321;28;20512;-36
2023/04/27 09:12:19;;;;;;;4.55;2.70;;;;;;;10.04;64.19;102098.69;5116199;28;20049;-36
2023/04/27 09:14:59;;;;;;;3.45;2.60;;;;;;;10.14;66.33;102094.81;5116817;28;20031;-36
2023/04/27 09:17:29;;;;;;;4.65;2.65;;;;;;;10.16;62.85;102090.06;5115641;28;20039;-36
2023/04/27 09:20:09;;;;;;;4.70;2.40;;;;;;;10.39;64.70;102096.03;5115722;27;20073;-36
2023/04/27 09:22:46;;;;;;;9.18;3.40;;;;;;;10.52;65.14;102096.09;5115760;28;20467;-36
2023/04/27 09:25:28;;;;;;;5.63;3.55;;;;;;;10.57;62.46;102088.22;5115691;28;20098;-36
2023/04/27 09:27:58;;;;;;;4.00;2.88;;;;;;;10.68;64.02;102089.50;5115684;28;20528;-36
2023/04/27 09:30:24;;;;;;;4.85;3.05;;;;;;;10.78;64.38;102084.59;5116410;28;20161;-36
2023/04/27 09:32:57;;;;;;;6.90;2.97;;;;;;;10.81;64.35;102088.75;5116198;28;20054;-36
2023/04/27 09:35:24;;;;;;;6.95;3.33;;;;;;;10.80;64.32;102079.81;5115501;28;20483;-36
2023/04/27 09:37:51;;;;;;;6.47;3.20;;;;;;;10.78;63.67;102076.47;5115247;28;20129;-36
2023/04/27 09:40:26;;;;;;;4.72;2.72;;;;;;;10.76;61.49;102083.13;5116230;28;20088;-36
2023/04/27 09:42:53;;;;;;;5.75;2.95;;;;;;;10.77;61.32;102084.78;5115623;27;20016;-36
2023/04/27 09:45:19;;;;;;;4.80;2.58;;;;;;;10.63;57.28;102066.81;5114800;28;20050;-36
2023/04/27 09:47:45;;;;;;;5.53;3.30;;;;;;;10.74;58.89;102064.38;5115268;27;20115;-36
2023/04/27 09:50:12;;;;;;;5.35;3.22;;;;;;;10.96;62.85;102070.47;5115292;28;20103;-36
2023/04/27 09:52:37;;;;;;;4.65;2.90;;;;;;;10.94;58.66;102071.75;5115226;28;20052;-36
2023/04/27 09:55:08;;;;;;;5.27;2.40;;;;;;;10.81;55.73;102073.34;5114865;28;20435;-36
2023/04/27 09:57:44;;;;;;;5.03;2.20;;;;;;;10.83;57.31;102059.59;5115355;28;20027;-36
2023/04/27 10:00:23;;;;;;;4.35;2.67;;;;;;;10.94;56.15;102072.56;5114779;28;20028;-36
2023/04/27 10:03:04;;;;;;;4.15;2.58;;;;;;;11.11;58.93;102064.06;5114753;28;20063;-36
2023/04/27 10:05:34;;;;;;;5.30;3.03;;;;;;;11.11;57.21;102062.19;5114973;28;20550;-36
2023/04/27 10:08:03;;;;;;;5.30;2.92;;;;;;;10.90;55.27;102052.34;5115446;28;20024;-36
2023/04/27 10:10:29;;;;;;;4.88;2.60;;;;;;;10.71;54.97;102040.44;5114559;28;20027;-36
2023/04/27 10:13:00;;;;;;;40.90;4.23;;;;;;;10.99;56.73;102051.13;5114496;28;20063;-36
2023/04/27 10:15:27;;;;;;;5.00;2.50;;;;;;;11.16;57.61;102061.56;5115316;28;20080;-36
2023/04/27 10:17:54;;;;;;;5.25;2.30;;;;;;;11.17;53.39;102060.53;5114653;28;20444;-36
2023/04/27 10:20:30;;;;;;;5.32;2.45;;;;;;;11.17;52.27;102069.47;5114339;28;20030;-36
2023/04/27 10:22:55;;;;;;;5.05;2.47;;;;;;;11.20;53.54;102066.38;5114602;28;20023;-36
2023/04/27 10:25:22;;;;;;;3.92;2.30;;;;;;;11.39;54.89;102066.63;5114566;28;20119;-36
2023/04/27 10:28:13;;;;;;;4.50;2.22;;;;;;;11.44;54.15;102061.41;5114540;28;20036;-36
2023/04/27 10:30:45;;;;;;;4.05;2.05;;;;;;;11.30;52.96;102055.97;5114444;28;20532;-36
2023/04/27 10:33:11;;;;;;;3.55;2.10;;;;;;;11.41;53.01;102070.78;5114743;28;20026;-36
2023/04/27 10:35:39;;;;;;;5.05;2.40;;;;;;;11.46;52.74;102064.75;5115086;28;20023;-36
2023/04/27 10:38:07;;;;;;;4.70;1.98;;;;;;;11.51;54.05;102065.78;5114385;28;20061;-36
2023/04/27 10:40:36;;;;;;;4.70;2.47;;;;;;;11.52;57.16;102044.97;5114901;28;20026;-36
2023/04/27 10:43:12;;;;;;;2.65;2.08;;;;;;;11.58;53.20;102060.38;5114255;28;20094;-36
2023/04/27 10:45:38;;;;;;;4.10;2.50;;;;;;;11.73;52.38;102055.59;5114693;28;20351;-36
2023/04/27 10:48:04;;;;;;;3.40;2.05;;;;;;;11.94;53.90;102051.84;5114221;28;20456;-36
2023/04/27 10:50:30;;;;;;;4.95;2.30;;;;;;;11.96;52.63;102047.06;5114754;28;20030;-36
2023/04/27 10:53:07;;;;;;;3.65;2.38;;;;;;;11.92;52.88;102048.53;5114444;28;20102;-37
2023/04/27 10:55:34;;;;;;;4.18;2.30;;;;;;;11.98;53.44;102039.53;5114349;28;20084;-36
2023/04/27 10:58:00;;;;;;;5.72;2.95;;;;;;;11.95;51.44;102039.94;5114157;28;20028;-36
2023/04/27 11:00:28;;;;;;;4.75;2.30;;;;;;;12.20;52.67;102039.28;5114290;28;20028;-36
2023/04/27 11:02:55;;;;;;;3.38;2.72;;;;;;;12.09;48.57;102032.63;5114321;28;20031;-36
2023/04/27 11:05:29;;;;;;;3.72;2.58;;;;;;;11.92;50.59;102032.25;5113812;28;20031;-36
2023/04/27 11:08:08;;;;;;;4.10;2.20;;;;;;;12.21;50.55;102030.13;5114588;28;20055;-36
2023/04/27 11:10:34;;;;;;;4.93;2.42;;;;;;;12.22;49.99;102016.34;5114017;28;20028;-36
2023/04/27 11:13:07;;;;;;;4.65;2.30;;;;;;;12.38;50.11;102020.44;5114527;28;20528;-36
2023/04/27 11:15:51;;;;;;;5.32;2.53;;;;;;;12.56;50.59;102009.72;5113907;28;20020;-36
2023/04/27 11:18:18;;;;;;;3.38;2.58;;;;;;;12.77;51.20;102005.88;5114823;28;20016;-36
2023/04/27 11:20:47;;;;;;;4.00;2.72;;;;;;;12.90;50.19;102004.97;5114128;28;20023;-37
2023/04/27 11:23:26;;;;;;;5.00;2.67;;;;;;;13.00;51.42;102005.31;5113876;28;20020;-36
2023/04/27 11:25:52;;;;;;;4.25;2.60;;;;;;;13.08;49.78;102004.22;5114744;28;20356;-36